sensor_id;sensor_type;location;lat;lon;timestamp;pressure;altitude;pressure_sealevel;temperature
67353;BMP180;54238;52.278;21.056;2023-07-16T00:00:09;100289.20;;;24.44
67353;BMP180;54238;52.278;21.056;2023-07-16T00:03:00;100288.40;;;24.40
67353;BMP180;54238;52.278;21.056;2023-07-16T00:05:30;100291.60;;;24.40
67353;BMP180;54238;52.278;21.056;2023-07-16T00:07:59;100291.00;;;24.40
67353;BMP180;54238;52.278;21.056;2023-07-16T00:10:26;100285.60;;;24.30
67353;BMP180;54238;52.278;21.056;2023-07-16T00:12:56;100285.00;;;24.30
67353;BMP180;54238;52.278;21.056;2023-07-16T00:15:26;100284.40;;;24.30
67353;BMP180;54238;52.278;21.056;2023-07-16T00:17:56;100281.80;;;24.30
67353;BMP180;54238;52.278;21.056;2023-07-16T00:20:23;100279.20;;;24.20
67353;BMP180;54238;52.278;21.056;2023-07-16T00:22:56;100279.00;;;24.14
67353;BMP180;54238;52.278;21.056;2023-07-16T00:25:28;100274.40;;;24.10
67353;BMP180;54238;52.278;21.056;2023-07-16T00:27:58;100272.60;;;24.10
67353;BMP180;54238;52.278;21.056;2023-07-16T00:30:27;100278.40;;;24.06
67353;BMP180;54238;52.278;21.056;2023-07-16T00:32:57;100274.80;;;24.00
67353;BMP180;54238;52.278;21.056;2023-07-16T00:35:25;100273.40;;;24.00
67353;BMP180;54238;52.278;21.056;2023-07-16T00:37:54;100274.60;;;23.98
67353;BMP180;54238;52.278;21.056;2023-07-16T00:40:24;100273.80;;;23.90
67353;BMP180;54238;52.278;21.056;2023-07-16T00:42:51;100273.40;;;23.90
67353;BMP180;54238;52.278;21.056;2023-07-16T00:45:21;100275.00;;;23.90
67353;BMP180;54238;52.278;21.056;2023-07-16T00:47:48;100272.20;;;23.90
67353;BMP180;54238;52.278;21.056;2023-07-16T00:50:15;100276.00;;;23.90
67353;BMP180;54238;52.278;21.056;2023-07-16T00:52:47;100274.00;;;23.80
67353;BMP180;54238;52.278;21.056;2023-07-16T00:55:17;100276.00;;;23.80
67353;BMP180;54238;52.278;21.056;2023-07-16T00:57:47;100278.40;;;23.80
67353;BMP180;54238;52.278;21.056;2023-07-16T01:00:18;100276.60;;;23.80
67353;BMP180;54238;52.278;21.056;2023-07-16T01:02:57;100280.20;;;23.80
67353;BMP180;54238;52.278;21.056;2023-07-16T01:05:31;100274.80;;;23.72
67353;BMP180;54238;52.278;21.056;2023-07-16T01:08:09;100272.60;;;23.70
67353;BMP180;54238;52.278;21.056;2023-07-16T01:10:38;100265.40;;;23.70
67353;BMP180;54238;52.278;21.056;2023-07-16T01:13:07;100262.20;;;23.70
67353;BMP180;54238;52.278;21.056;2023-07-16T01:15:36;100255.80;;;23.66
67353;BMP180;54238;52.278;21.056;2023-07-16T01:18:05;100248.40;;;23.60
67353;BMP180;54238;52.278;21.056;2023-07-16T01:20:37;100252.00;;;23.60
67353;BMP180;54238;52.278;21.056;2023-07-16T01:23:44;100250.00;;;23.60
67353;BMP180;54238;52.278;21.056;2023-07-16T01:29:33;100235.80;;;23.50
67353;BMP180;54238;52.278;21.056;2023-07-16T01:32:07;100239.20;;;23.42
67353;BMP180;54238;52.278;21.056;2023-07-16T01:34:38;100238.20;;;23.40
67353;BMP180;54238;52.278;21.056;2023-07-16T01:37:08;100241.40;;;23.40
67353;BMP180;54238;52.278;21.056;2023-07-16T01:39:40;100240.60;;;23.40
67353;BMP180;54238;52.278;21.056;2023-07-16T01:42:12;100239.00;;;23.30
67353;BMP180;54238;52.278;21.056;2023-07-16T01:44:46;100241.80;;;23.30
67353;BMP180;54238;52.278;21.056;2023-07-16T01:47:43;100237.80;;;23.30
67353;BMP180;54238;52.278;21.056;2023-07-16T01:50:13;100239.60;;;23.30
67353;BMP180;54238;52.278;21.056;2023-07-16T01:52:40;100233.80;;;23.30
67353;BMP180;54238;52.278;21.056;2023-07-16T01:55:10;100228.60;;;23.30
67353;BMP180;54238;52.278;21.056;2023-07-16T01:57:39;100229.40;;;23.30
67353;BMP180;54238;52.278;21.056;2023-07-16T02:00:10;100228.20;;;23.28
67353;BMP180;54238;52.278;21.056;2023-07-16T02:02:37;100228.80;;;23.20
67353;BMP180;54238;52.278;21.056;2023-07-16T02:05:07;100230.00;;;23.20
67353;BMP180;54238;52.278;21.056;2023-07-16T02:07:34;100230.00;;;23.20
67353;BMP180;54238;52.278;21.056;2023-07-16T02:10:04;100228.40;;;23.20
67353;BMP180;54238;52.278;21.056;2023-07-16T02:12:34;100232.00;;;23.20
67353;BMP180;54238;52.278;21.056;2023-07-16T02:15:03;100225.40;;;23.20
67353;BMP180;54238;52.278;21.056;2023-07-16T02:17:30;100223.00;;;23.18
67353;BMP180;54238;52.278;21.056;2023-07-16T02:19:57;100220.20;;;23.10
67353;BMP180;54238;52.278;21.056;2023-07-16T02:22:27;100221.80;;;23.10
67353;BMP180;54238;52.278;21.056;2023-07-16T02:24:54;100217.60;;;23.10
67353;BMP180;54238;52.278;21.056;2023-07-16T02:27:21;100218.80;;;23.02
67353;BMP180;54238;52.278;21.056;2023-07-16T02:29:50;100215.20;;;23.00
67353;BMP180;54238;52.278;21.056;2023-07-16T02:32:22;100214.60;;;23.00
67353;BMP180;54238;52.278;21.056;2023-07-16T02:34:50;100214.60;;;23.00
67353;BMP180;54238;52.278;21.056;2023-07-16T02:37:17;100217.20;;;22.90
67353;BMP180;54238;52.278;21.056;2023-07-16T02:39:45;100212.40;;;22.90
67353;BMP180;54238;52.278;21.056;2023-07-16T02:42:13;100208.60;;;22.90
67353;BMP180;54238;52.278;21.056;2023-07-16T02:44:44;100208.20;;;22.90
67353;BMP180;54238;52.278;21.056;2023-07-16T02:47:12;100207.60;;;22.90
67353;BMP180;54238;52.278;21.056;2023-07-16T02:49:42;100213.00;;;22.80
67353;BMP180;54238;52.278;21.056;2023-07-16T02:52:09;100211.60;;;22.80
67353;BMP180;54238;52.278;21.056;2023-07-16T02:54:38;100212.20;;;22.80
67353;BMP180;54238;52.278;21.056;2023-07-16T02:57:07;100209.40;;;22.80
67353;BMP180;54238;52.278;21.056;2023-07-16T02:59:35;100209.20;;;22.80
67353;BMP180;54238;52.278;21.056;2023-07-16T03:02:06;100209.20;;;22.74
67353;BMP180;54238;52.278;21.056;2023-07-16T03:04:34;100209.00;;;22.70
67353;BMP180;54238;52.278;21.056;2023-07-16T03:07:01;100207.80;;;22.70
67353;BMP180;54238;52.278;21.056;2023-07-16T03:09:30;100214.60;;;22.70
67353;BMP180;54238;52.278;21.056;2023-07-16T03:12:01;100215.00;;;22.70
67353;BMP180;54238;52.278;21.056;2023-07-16T03:14:28;100207.80;;;22.70
67353;BMP180;54238;52.278;21.056;2023-07-16T03:17:00;100208.00;;;22.60
67353;BMP180;54238;52.278;21.056;2023-07-16T03:19:29;100211.60;;;22.60
67353;BMP180;54238;52.278;21.056;2023-07-16T03:21:58;100217.20;;;22.60
67353;BMP180;54238;52.278;21.056;2023-07-16T03:24:28;100215.80;;;22.60
67353;BMP180;54238;52.278;21.056;2023-07-16T03:26:59;100219.00;;;22.60
67353;BMP180;54238;52.278;21.056;2023-07-16T03:29:26;100221.40;;;22.60
67353;BMP180;54238;52.278;21.056;2023-07-16T03:31:53;100230.00;;;22.66
67353;BMP180;54238;52.278;21.056;2023-07-16T03:34:25;100234.60;;;22.70
67353;BMP180;54238;52.278;21.056;2023-07-16T03:36:57;100231.60;;;22.70
67353;BMP180;54238;52.278;21.056;2023-07-16T03:39:25;100231.40;;;22.70
67353;BMP180;54238;52.278;21.056;2023-07-16T03:41:52;100233.40;;;22.70
67353;BMP180;54238;52.278;21.056;2023-07-16T03:44:20;100234.80;;;22.70
67353;BMP180;54238;52.278;21.056;2023-07-16T03:46:51;100235.60;;;22.70
67353;BMP180;54238;52.278;21.056;2023-07-16T03:49:24;100231.60;;;22.70
67353;BMP180;54238;52.278;21.056;2023-07-16T03:51:53;100234.60;;;22.70
67353;BMP180;54238;52.278;21.056;2023-07-16T03:54:25;100234.60;;;22.70
67353;BMP180;54238;52.278;21.056;2023-07-16T03:56:55;100238.80;;;22.70
67353;BMP180;54238;52.278;21.056;2023-07-16T03:59:24;100241.80;;;22.70
67353;BMP180;54238;52.278;21.056;2023-07-16T04:01:56;100240.20;;;22.60
67353;BMP180;54238;52.278;21.056;2023-07-16T04:04:25;100242.20;;;22.60
67353;BMP180;54238;52.278;21.056;2023-07-16T04:06:55;100242.20;;;22.60
67353;BMP180;54238;52.278;21.056;2023-07-16T04:09:23;100239.60;;;22.60
67353;BMP180;54238;52.278;21.056;2023-07-16T04:11:50;100238.80;;;22.60
67353;BMP180;54238;52.278;21.056;2023-07-16T04:14:19;100235.80;;;22.60
67353;BMP180;54238;52.278;21.056;2023-07-16T04:16:49;100242.60;;;22.60
67353;BMP180;54238;52.278;21.056;2023-07-16T04:19:18;100235.20;;;22.60
67353;BMP180;54238;52.278;21.056;2023-07-16T04:21:49;100236.20;;;22.60
67353;BMP180;54238;52.278;21.056;2023-07-16T04:24:18;100237.80;;;22.70
67353;BMP180;54238;52.278;21.056;2023-07-16T04:26:53;100234.40;;;22.70
67353;BMP180;54238;52.278;21.056;2023-07-16T04:29:22;100232.40;;;22.72
67353;BMP180;54238;52.278;21.056;2023-07-16T04:31:52;100237.40;;;22.80
67353;BMP180;54238;52.278;21.056;2023-07-16T04:34:22;100233.00;;;22.84
67353;BMP180;54238;52.278;21.056;2023-07-16T04:36:49;100232.00;;;22.90
67353;BMP180;54238;52.278;21.056;2023-07-16T04:39:19;100238.00;;;22.92
67353;BMP180;54238;52.278;21.056;2023-07-16T04:41:45;100236.80;;;23.00
67353;BMP180;54238;52.278;21.056;2023-07-16T04:44:15;100242.80;;;23.00
67353;BMP180;54238;52.278;21.056;2023-07-16T04:46:47;100245.80;;;23.10
67353;BMP180;54238;52.278;21.056;2023-07-16T04:49:14;100246.40;;;23.10
67353;BMP180;54238;52.278;21.056;2023-07-16T04:51:41;100245.80;;;23.18
67353;BMP180;54238;52.278;21.056;2023-07-16T04:54:10;100247.20;;;23.20
67353;BMP180;54238;52.278;21.056;2023-07-16T04:56:39;100243.00;;;23.20
67353;BMP180;54238;52.278;21.056;2023-07-16T04:59:11;100241.40;;;23.28
67353;BMP180;54238;52.278;21.056;2023-07-16T05:01:38;100242.60;;;23.30
67353;BMP180;54238;52.278;21.056;2023-07-16T05:04:09;100243.40;;;23.36
67353;BMP180;54238;52.278;21.056;2023-07-16T05:06:37;100241.60;;;23.40
67353;BMP180;54238;52.278;21.056;2023-07-16T05:09:04;100238.60;;;23.50
67353;BMP180;54238;52.278;21.056;2023-07-16T05:11:33;100243.00;;;23.50
67353;BMP180;54238;52.278;21.056;2023-07-16T05:14:02;100246.40;;;23.60
67353;BMP180;54238;52.278;21.056;2023-07-16T05:16:32;100248.80;;;23.60
67353;BMP180;54238;52.278;21.056;2023-07-16T05:19:06;100257.80;;;23.70
67353;BMP180;54238;52.278;21.056;2023-07-16T05:21:33;100250.00;;;23.70
67353;BMP180;54238;52.278;21.056;2023-07-16T05:24:00;100247.00;;;23.70
67353;BMP180;54238;52.278;21.056;2023-07-16T05:26:27;100247.20;;;23.78
67353;BMP180;54238;52.278;21.056;2023-07-16T05:28:54;100251.00;;;23.80
67353;BMP180;54238;52.278;21.056;2023-07-16T05:31:21;100250.00;;;23.88
67353;BMP180;54238;52.278;21.056;2023-07-16T05:33:48;100246.40;;;23.90
67353;BMP180;54238;52.278;21.056;2023-07-16T05:36:20;100242.00;;;24.00
67353;BMP180;54238;52.278;21.056;2023-07-16T05:38:49;100241.20;;;24.10
67353;BMP180;54238;52.278;21.056;2023-07-16T05:41:21;100238.20;;;24.10
67353;BMP180;54238;52.278;21.056;2023-07-16T05:43:50;100237.80;;;24.20
67353;BMP180;54238;52.278;21.056;2023-07-16T05:46:18;100235.40;;;24.30
67353;BMP180;54238;52.278;21.056;2023-07-16T05:48:44;100231.60;;;24.40
67353;BMP180;54238;52.278;21.056;2023-07-16T05:51:14;100237.40;;;24.50
67353;BMP180;54238;52.278;21.056;2023-07-16T05:53:43;100238.00;;;24.60
67353;BMP180;54238;52.278;21.056;2023-07-16T05:56:15;100238.00;;;24.70
67353;BMP180;54238;52.278;21.056;2023-07-16T05:58:50;100232.20;;;24.80
67353;BMP180;54238;52.278;21.056;2023-07-16T06:01:19;100238.00;;;24.90
67353;BMP180;54238;52.278;21.056;2023-07-16T06:03:50;100236.20;;;25.00
67353;BMP180;54238;52.278;21.056;2023-07-16T06:06:26;100248.20;;;25.02
67353;BMP180;54238;52.278;21.056;2023-07-16T06:08:56;100244.40;;;25.10
67353;BMP180;54238;52.278;21.056;2023-07-16T06:11:28;100247.00;;;25.20
67353;BMP180;54238;52.278;21.056;2023-07-16T06:13:57;100246.00;;;25.20
67353;BMP180;54238;52.278;21.056;2023-07-16T06:16:24;100252.80;;;25.30
67353;BMP180;54238;52.278;21.056;2023-07-16T06:18:54;100245.60;;;25.40
67353;BMP180;54238;52.278;21.056;2023-07-16T06:21:21;100246.00;;;25.50
67353;BMP180;54238;52.278;21.056;2023-07-16T06:23:50;100242.60;;;25.60
67353;BMP180;54238;52.278;21.056;2023-07-16T06:26:19;100239.80;;;25.70
67353;BMP180;54238;52.278;21.056;2023-07-16T06:28:47;100237.60;;;25.80
67353;BMP180;54238;52.278;21.056;2023-07-16T06:31:17;100240.40;;;25.90
67353;BMP180;54238;52.278;21.056;2023-07-16T06:33:47;100242.60;;;26.00
67353;BMP180;54238;52.278;21.056;2023-07-16T06:36:16;100249.60;;;26.10
67353;BMP180;54238;52.278;21.056;2023-07-16T06:38:46;100249.40;;;26.20
67353;BMP180;54238;52.278;21.056;2023-07-16T06:41:19;100248.80;;;26.30
67353;BMP180;54238;52.278;21.056;2023-07-16T06:43:54;100250.40;;;26.50
67353;BMP180;54238;52.278;21.056;2023-07-16T06:46:26;100251.00;;;26.58
67353;BMP180;54238;52.278;21.056;2023-07-16T06:48:57;100251.60;;;26.70
67353;BMP180;54238;52.278;21.056;2023-07-16T06:51:31;100257.40;;;26.80
67353;BMP180;54238;52.278;21.056;2023-07-16T06:53:59;100261.80;;;26.90
67353;BMP180;54238;52.278;21.056;2023-07-16T06:56:27;100259.80;;;26.90
67353;BMP180;54238;52.278;21.056;2023-07-16T06:58:56;100267.40;;;27.00
67353;BMP180;54238;52.278;21.056;2023-07-16T07:01:26;100267.00;;;27.02
67353;BMP180;54238;52.278;21.056;2023-07-16T07:03:57;100271.40;;;27.10
67353;BMP180;54238;52.278;21.056;2023-07-16T07:06:26;100271.80;;;27.20
67353;BMP180;54238;52.278;21.056;2023-07-16T07:08:54;100272.00;;;27.38
67353;BMP180;54238;52.278;21.056;2023-07-16T07:11:21;100276.00;;;27.50
67353;BMP180;54238;52.278;21.056;2023-07-16T07:13:53;100277.60;;;27.62
67353;BMP180;54238;52.278;21.056;2023-07-16T07:16:23;100276.00;;;27.80
67353;BMP180;54238;52.278;21.056;2023-07-16T07:18:52;100269.60;;;27.90
67353;BMP180;54238;52.278;21.056;2023-07-16T07:21:22;100280.80;;;28.04
67353;BMP180;54238;52.278;21.056;2023-07-16T07:23:51;100278.80;;;28.10
67353;BMP180;54238;52.278;21.056;2023-07-16T07:26:18;100284.00;;;28.20
67353;BMP180;54238;52.278;21.056;2023-07-16T07:28:48;100281.40;;;28.30
67353;BMP180;54238;52.278;21.056;2023-07-16T07:31:15;100288.80;;;28.34
67353;BMP180;54238;52.278;21.056;2023-07-16T07:33:44;100293.80;;;28.40
67353;BMP180;54238;52.278;21.056;2023-07-16T07:36:11;100289.40;;;28.50
67353;BMP180;54238;52.278;21.056;2023-07-16T07:38:42;100289.60;;;28.62
67353;BMP180;54238;52.278;21.056;2023-07-16T07:41:12;100286.00;;;28.80
67353;BMP180;54238;52.278;21.056;2023-07-16T07:43:42;100282.00;;;28.90
67353;BMP180;54238;52.278;21.056;2023-07-16T07:46:09;100279.60;;;29.00
67353;BMP180;54238;52.278;21.056;2023-07-16T07:48:37;100273.40;;;29.12
67353;BMP180;54238;52.278;21.056;2023-07-16T07:51:04;100266.20;;;29.22
67353;BMP180;54238;52.278;21.056;2023-07-16T07:53:33;100259.00;;;29.30
67353;BMP180;54238;52.278;21.056;2023-07-16T07:56:03;100262.20;;;29.46
67353;BMP180;54238;52.278;21.056;2023-07-16T07:58:32;100256.60;;;29.60
67353;BMP180;54238;52.278;21.056;2023-07-16T08:01:07;100256.40;;;29.74
67353;BMP180;54238;52.278;21.056;2023-07-16T08:03:35;100246.40;;;29.90
67353;BMP180;54238;52.278;21.056;2023-07-16T08:06:07;100249.00;;;30.08
67353;BMP180;54238;52.278;21.056;2023-07-16T08:08:35;100249.40;;;30.20
67353;BMP180;54238;52.278;21.056;2023-07-16T08:11:02;100247.80;;;30.28
67353;BMP180;54238;52.278;21.056;2023-07-16T08:13:31;100245.00;;;30.40
67353;BMP180;54238;52.278;21.056;2023-07-16T08:16:00;100237.80;;;30.50
67353;BMP180;54238;52.278;21.056;2023-07-16T08:18:30;100232.80;;;30.60
67353;BMP180;54238;52.278;21.056;2023-07-16T08:20:57;100233.60;;;30.70
67353;BMP180;54238;52.278;21.056;2023-07-16T08:23:27;100237.00;;;30.76
67353;BMP180;54238;52.278;21.056;2023-07-16T08:25:54;100233.40;;;30.90
67353;BMP180;54238;52.278;21.056;2023-07-16T08:28:27;100237.40;;;31.00
67353;BMP180;54238;52.278;21.056;2023-07-16T08:30:54;100235.60;;;31.08
67353;BMP180;54238;52.278;21.056;2023-07-16T08:33:27;100225.80;;;31.18
67353;BMP180;54238;52.278;21.056;2023-07-16T08:35:56;100227.00;;;31.30
67353;BMP180;54238;52.278;21.056;2023-07-16T08:38:25;100226.00;;;31.40
67353;BMP180;54238;52.278;21.056;2023-07-16T08:41:00;100220.40;;;31.56
67353;BMP180;54238;52.278;21.056;2023-07-16T08:43:29;100221.80;;;31.66
67353;BMP180;54238;52.278;21.056;2023-07-16T08:45:59;100223.40;;;31.80
67353;BMP180;54238;52.278;21.056;2023-07-16T08:48:32;100227.40;;;31.90
67353;BMP180;54238;52.278;21.056;2023-07-16T08:51:04;100225.60;;;32.04
67353;BMP180;54238;52.278;21.056;2023-07-16T08:53:33;100219.40;;;32.20
67353;BMP180;54238;52.278;21.056;2023-07-16T08:56:00;100217.20;;;32.30
67353;BMP180;54238;52.278;21.056;2023-07-16T08:58:30;100227.20;;;32.40
67353;BMP180;54238;52.278;21.056;2023-07-16T09:00:59;100217.00;;;32.50
67353;BMP180;54238;52.278;21.056;2023-07-16T09:03:31;100210.80;;;32.60
67353;BMP180;54238;52.278;21.056;2023-07-16T09:06:05;100209.00;;;32.70
67353;BMP180;54238;52.278;21.056;2023-07-16T09:08:32;100215.40;;;32.80
67353;BMP180;54238;52.278;21.056;2023-07-16T09:10:59;100218.80;;;32.98
67353;BMP180;54238;52.278;21.056;2023-07-16T09:13:29;100214.40;;;33.10
67353;BMP180;54238;52.278;21.056;2023-07-16T09:16:01;100225.00;;;33.20
67353;BMP180;54238;52.278;21.056;2023-07-16T09:18:30;100223.60;;;33.20
67353;BMP180;54238;52.278;21.056;2023-07-16T09:21:00;100218.40;;;33.28
67353;BMP180;54238;52.278;21.056;2023-07-16T09:23:35;100220.60;;;33.40
67353;BMP180;54238;52.278;21.056;2023-07-16T09:26:03;100218.20;;;33.48
67353;BMP180;54238;52.278;21.056;2023-07-16T09:28:31;100215.20;;;33.60
67353;BMP180;54238;52.278;21.056;2023-07-16T09:31:07;100214.20;;;33.70
67353;BMP180;54238;52.278;21.056;2023-07-16T09:33:37;100216.40;;;33.70
67353;BMP180;54238;52.278;21.056;2023-07-16T09:36:06;100213.80;;;33.80
67353;BMP180;54238;52.278;21.056;2023-07-16T09:38:34;100213.00;;;33.90
67353;BMP180;54238;52.278;21.056;2023-07-16T09:41:08;100211.00;;;34.00
67353;BMP180;54238;52.278;21.056;2023-07-16T09:43:40;100216.80;;;34.20
67353;BMP180;54238;52.278;21.056;2023-07-16T09:46:10;100212.20;;;34.30
67353;BMP180;54238;52.278;21.056;2023-07-16T09:48:39;100213.00;;;34.50
67353;BMP180;54238;52.278;21.056;2023-07-16T09:51:13;100213.40;;;34.70
67353;BMP180;54238;52.278;21.056;2023-07-16T09:53:50;100214.00;;;34.80
67353;BMP180;54238;52.278;21.056;2023-07-16T09:56:22;100216.80;;;34.68
67353;BMP180;54238;52.278;21.056;2023-07-16T09:58:59;100205.60;;;34.60
67353;BMP180;54238;52.278;21.056;2023-07-16T10:01:29;100201.20;;;34.70
67353;BMP180;54238;52.278;21.056;2023-07-16T10:04:21;100202.80;;;34.96
67353;BMP180;54238;52.278;21.056;2023-07-16T10:07:19;100206.40;;;34.92
67353;BMP180;54238;52.278;21.056;2023-07-16T10:09:54;100200.60;;;35.18
67353;BMP180;54238;52.278;21.056;2023-07-16T10:12:25;100196.40;;;35.40
67353;BMP180;54238;52.278;21.056;2023-07-16T10:14:58;100200.80;;;35.78
67353;BMP180;54238;52.278;21.056;2023-07-16T10:17:35;100189.20;;;36.10
67353;BMP180;54238;52.278;21.056;2023-07-16T10:22:46;100191.40;;;36.58
67353;BMP180;54238;52.278;21.056;2023-07-16T10:27:52;100192.00;;;37.20
67353;BMP180;54238;52.278;21.056;2023-07-16T10:30:24;100208.80;;;37.30
67353;BMP180;54238;52.278;21.056;2023-07-16T10:32:51;100200.80;;;37.20
67353;BMP180;54238;52.278;21.056;2023-07-16T10:35:24;100199.20;;;37.16
67353;BMP180;54238;52.278;21.056;2023-07-16T10:37:54;100188.20;;;37.10
67353;BMP180;54238;52.278;21.056;2023-07-16T10:40:21;100190.60;;;36.80
67353;BMP180;54238;52.278;21.056;2023-07-16T10:42:48;100196.40;;;36.58
67353;BMP180;54238;52.278;21.056;2023-07-16T10:45:18;100195.60;;;36.30
67353;BMP180;54238;52.278;21.056;2023-07-16T10:47:54;100189.40;;;36.14
67353;BMP180;54238;52.278;21.056;2023-07-16T10:50:27;100189.60;;;36.00
67353;BMP180;54238;52.278;21.056;2023-07-16T10:52:56;100179.60;;;35.90
67353;BMP180;54238;52.278;21.056;2023-07-16T10:55:31;100182.60;;;35.82
67353;BMP180;54238;52.278;21.056;2023-07-16T10:58:07;100190.60;;;35.80
67353;BMP180;54238;52.278;21.056;2023-07-16T11:00:39;100194.20;;;35.70
67353;BMP180;54238;52.278;21.056;2023-07-16T11:03:08;100201.40;;;35.54
67353;BMP180;54238;52.278;21.056;2023-07-16T11:05:39;100196.20;;;35.40
67353;BMP180;54238;52.278;21.056;2023-07-16T11:08:06;100208.00;;;35.30
67353;BMP180;54238;52.278;21.056;2023-07-16T11:10:40;100204.00;;;35.18
67353;BMP180;54238;52.278;21.056;2023-07-16T11:13:12;100208.60;;;35.00
67353;BMP180;54238;52.278;21.056;2023-07-16T11:15:47;100206.20;;;35.00
67353;BMP180;54238;52.278;21.056;2023-07-16T11:18:17;100201.80;;;35.10
67353;BMP180;54238;52.278;21.056;2023-07-16T11:20:45;100209.40;;;35.20
67353;BMP180;54238;52.278;21.056;2023-07-16T11:23:15;100201.40;;;35.20
67353;BMP180;54238;52.278;21.056;2023-07-16T11:25:52;100195.80;;;35.20
67353;BMP180;54238;52.278;21.056;2023-07-16T11:28:23;100194.80;;;35.46
67353;BMP180;54238;52.278;21.056;2023-07-16T11:30:53;100207.40;;;35.70
67353;BMP180;54238;52.278;21.056;2023-07-16T11:33:19;100198.40;;;36.12
67353;BMP180;54238;52.278;21.056;2023-07-16T11:35:50;100209.60;;;36.70
67353;BMP180;54238;52.278;21.056;2023-07-16T11:38:22;100204.60;;;37.30
67353;BMP180;54238;52.278;21.056;2023-07-16T11:41:00;100206.20;;;37.68
67353;BMP180;54238;52.278;21.056;2023-07-16T11:43:34;100211.00;;;37.70
67353;BMP180;54238;52.278;21.056;2023-07-16T11:46:16;100206.20;;;37.50
67353;BMP180;54238;52.278;21.056;2023-07-16T11:48:43;100209.20;;;37.30
67353;BMP180;54238;52.278;21.056;2023-07-16T11:51:15;100204.80;;;37.18
67353;BMP180;54238;52.278;21.056;2023-07-16T11:53:42;100197.40;;;37.22
67353;BMP180;54238;52.278;21.056;2023-07-16T11:56:09;100200.60;;;37.50
67353;BMP180;54238;52.278;21.056;2023-07-16T11:58:37;100215.80;;;37.58
67353;BMP180;54238;52.278;21.056;2023-07-16T12:01:04;100212.20;;;37.50
67353;BMP180;54238;52.278;21.056;2023-07-16T12:03:33;100222.20;;;37.60
67353;BMP180;54238;52.278;21.056;2023-07-16T12:06:02;100216.60;;;37.50
67353;BMP180;54238;52.278;21.056;2023-07-16T12:08:31;100222.80;;;37.20
67353;BMP180;54238;52.278;21.056;2023-07-16T12:11:01;100210.60;;;37.00
67353;BMP180;54238;52.278;21.056;2023-07-16T12:13:35;100240.40;;;37.00
67353;BMP180;54238;52.278;21.056;2023-07-16T12:16:05;100217.80;;;37.00
67353;BMP180;54238;52.278;21.056;2023-07-16T12:18:34;100233.20;;;37.10
67353;BMP180;54238;52.278;21.056;2023-07-16T12:21:02;100229.00;;;37.30
67353;BMP180;54238;52.278;21.056;2023-07-16T12:23:35;100223.80;;;37.54
67353;BMP180;54238;52.278;21.056;2023-07-16T12:26:02;100212.80;;;37.80
67353;BMP180;54238;52.278;21.056;2023-07-16T12:28:32;100214.80;;;38.10
67353;BMP180;54238;52.278;21.056;2023-07-16T12:31:06;100214.00;;;38.40
67353;BMP180;54238;52.278;21.056;2023-07-16T12:33:36;100212.20;;;38.56
67353;BMP180;54238;52.278;21.056;2023-07-16T12:36:06;100208.40;;;38.70
67353;BMP180;54238;52.278;21.056;2023-07-16T12:38:35;100221.60;;;38.70
67353;BMP180;54238;52.278;21.056;2023-07-16T12:41:06;100219.40;;;38.96
67353;BMP180;54238;52.278;21.056;2023-07-16T12:43:33;100211.00;;;39.14
67353;BMP180;54238;52.278;21.056;2023-07-16T12:46:05;100234.00;;;39.46
67353;BMP180;54238;52.278;21.056;2023-07-16T12:48:39;100232.80;;;39.50
67353;BMP180;54238;52.278;21.056;2023-07-16T12:51:08;100231.40;;;39.60
67353;BMP180;54238;52.278;21.056;2023-07-16T12:53:35;100227.20;;;39.60
67353;BMP180;54238;52.278;21.056;2023-07-16T12:56:08;100240.60;;;39.60
67353;BMP180;54238;52.278;21.056;2023-07-16T12:58:38;100245.80;;;39.40
67353;BMP180;54238;52.278;21.056;2023-07-16T13:01:04;100234.00;;;39.30
67353;BMP180;54238;52.278;21.056;2023-07-16T13:03:34;100230.60;;;39.30
67353;BMP180;54238;52.278;21.056;2023-07-16T13:06:04;100226.20;;;39.30
67353;BMP180;54238;52.278;21.056;2023-07-16T13:08:34;100232.00;;;39.40
67353;BMP180;54238;52.278;21.056;2023-07-16T13:11:04;100238.60;;;39.48
67353;BMP180;54238;52.278;21.056;2023-07-16T13:13:35;100236.60;;;39.24
67353;BMP180;54238;52.278;21.056;2023-07-16T13:16:02;100243.20;;;38.90
67353;BMP180;54238;52.278;21.056;2023-07-16T13:18:36;100245.20;;;38.42
67353;BMP180;54238;52.278;21.056;2023-07-16T13:21:06;100248.80;;;38.00
67353;BMP180;54238;52.278;21.056;2023-07-16T13:23:40;100257.00;;;37.70
67353;BMP180;54238;52.278;21.056;2023-07-16T13:26:09;100246.80;;;37.60
67353;BMP180;54238;52.278;21.056;2023-07-16T13:28:39;100251.20;;;37.64
67353;BMP180;54238;52.278;21.056;2023-07-16T13:31:06;100263.00;;;37.70
67353;BMP180;54238;52.278;21.056;2023-07-16T13:33:35;100256.40;;;37.80
67353;BMP180;54238;52.278;21.056;2023-07-16T13:36:10;100249.40;;;38.06
67353;BMP180;54238;52.278;21.056;2023-07-16T13:38:38;100252.40;;;38.44
67353;BMP180;54238;52.278;21.056;2023-07-16T13:41:07;100252.80;;;38.40
67353;BMP180;54238;52.278;21.056;2023-07-16T13:43:37;100260.40;;;38.30
67353;BMP180;54238;52.278;21.056;2023-07-16T13:46:04;100258.40;;;38.20
67353;BMP180;54238;52.278;21.056;2023-07-16T13:48:35;100255.20;;;37.90
67353;BMP180;54238;52.278;21.056;2023-07-16T13:51:03;100258.60;;;37.80
67353;BMP180;54238;52.278;21.056;2023-07-16T13:53:32;100244.00;;;38.10
67353;BMP180;54238;52.278;21.056;2023-07-16T13:56:03;100247.80;;;38.40
67353;BMP180;54238;52.278;21.056;2023-07-16T13:58:33;100242.60;;;38.48
67353;BMP180;54238;52.278;21.056;2023-07-16T14:01:02;100239.60;;;38.70
67353;BMP180;54238;52.278;21.056;2023-07-16T14:03:32;100249.20;;;39.12
67353;BMP180;54238;52.278;21.056;2023-07-16T14:06:01;100249.20;;;39.62
67353;BMP180;54238;52.278;21.056;2023-07-16T14:08:34;100258.60;;;40.22